Witting, Texas
Current Conditions -  °F | °C
As of 8:35 AM on Wednesday 22 Oct 2014 (Local Time) from KT20 Reporting Station
Clear Clear  
Wind Chill: 65°   Ceiling: Unl
Heat Index: 65°   Visibility: 10mi
Dew Point: 59°   Wind: 5mph
Humidity: 80%   Direction: 60°ENE
Pressure: 30.08"   Gusts: NA
Location:  29.5667°N, 97.0723°W
Report Text: KT20 221335Z AUTO 06004KT 10SM CLR 19/15 A3008 RMK AO2 T01850150
Loading
Personal Weather Stations






























Interactive Weather Map
Tropical Storm Tracking
New forecast layout! Learn more

10-Day Weather Forecast

Advertisements
Track Severe Weather on mobile